sensor_id;sensor_type;location;lat;lon;timestamp;temperature;humidity
14755;DHT22;7469;50.906;6.952;2023-04-16T00:01:40;8.80;99.90
14755;DHT22;7469;50.906;6.952;2023-04-16T00:04:08;8.80;99.90
14755;DHT22;7469;50.906;6.952;2023-04-16T00:06:37;8.80;99.90
14755;DHT22;7469;50.906;6.952;2023-04-16T00:09:05;8.80;99.90
14755;DHT22;7469;50.906;6.952;2023-04-16T00:11:33;8.80;99.90
14755;DHT22;7469;50.906;6.952;2023-04-16T00:14:01;8.80;99.90
14755;DHT22;7469;50.906;6.952;2023-04-16T00:16:29;8.80;99.90
14755;DHT22;7469;50.906;6.952;2023-04-16T00:18:58;8.80;99.90
14755;DHT22;7469;50.906;6.952;2023-04-16T00:21:26;8.80;99.90
14755;DHT22;7469;50.906;6.952;2023-04-16T00:23:54;8.80;99.90
14755;DHT22;7469;50.906;6.952;2023-04-16T00:26:22;8.80;99.90
14755;DHT22;7469;50.906;6.952;2023-04-16T00:28:50;8.80;99.90
14755;DHT22;7469;50.906;6.952;2023-04-16T00:31:25;8.80;99.90
14755;DHT22;7469;50.906;6.952;2023-04-16T00:33:53;8.80;99.90
14755;DHT22;7469;50.906;6.952;2023-04-16T00:36:24;8.80;99.90
14755;DHT22;7469;50.906;6.952;2023-04-16T00:38:53;8.80;99.90
14755;DHT22;7469;50.906;6.952;2023-04-16T00:41:21;8.80;99.90
14755;DHT22;7469;50.906;6.952;2023-04-16T00:43:49;8.80;99.90
14755;DHT22;7469;50.906;6.952;2023-04-16T00:46:18;8.80;99.90
14755;DHT22;7469;50.906;6.952;2023-04-16T00:48:47;8.80;99.90
14755;DHT22;7469;50.906;6.952;2023-04-16T00:51:17;8.80;99.90
14755;DHT22;7469;50.906;6.952;2023-04-16T00:53:47;8.80;99.90
14755;DHT22;7469;50.906;6.952;2023-04-16T00:56:15;8.80;99.90
14755;DHT22;7469;50.906;6.952;2023-04-16T00:58:43;8.80;99.90
14755;DHT22;7469;50.906;6.952;2023-04-16T01:01:12;8.80;99.90
14755;DHT22;7469;50.906;6.952;2023-04-16T01:03:42;8.80;99.90
14755;DHT22;7469;50.906;6.952;2023-04-16T01:06:11;8.80;99.90
14755;DHT22;7469;50.906;6.952;2023-04-16T01:08:39;8.80;99.90
14755;DHT22;7469;50.906;6.952;2023-04-16T01:11:09;8.80;99.90
14755;DHT22;7469;50.906;6.952;2023-04-16T01:13:37;8.80;99.90
14755;DHT22;7469;50.906;6.952;2023-04-16T01:16:06;8.80;99.90
14755;DHT22;7469;50.906;6.952;2023-04-16T01:18:35;8.80;99.90
14755;DHT22;7469;50.906;6.952;2023-04-16T01:21:05;8.80;99.90
14755;DHT22;7469;50.906;6.952;2023-04-16T01:23:33;8.80;99.90
14755;DHT22;7469;50.906;6.952;2023-04-16T01:26:01;8.80;99.90
14755;DHT22;7469;50.906;6.952;2023-04-16T01:28:29;8.80;99.90
14755;DHT22;7469;50.906;6.952;2023-04-16T01:30:57;8.80;99.90
14755;DHT22;7469;50.906;6.952;2023-04-16T01:33:25;8.80;99.90
14755;DHT22;7469;50.906;6.952;2023-04-16T01:35:53;8.80;99.90
14755;DHT22;7469;50.906;6.952;2023-04-16T01:38:22;8.80;99.90
14755;DHT22;7469;50.906;6.952;2023-04-16T01:40:54;8.70;99.90
14755;DHT22;7469;50.906;6.952;2023-04-16T01:43:23;8.70;99.90
14755;DHT22;7469;50.906;6.952;2023-04-16T01:45:52;8.70;99.90
14755;DHT22;7469;50.906;6.952;2023-04-16T01:48:20;8.70;99.90
14755;DHT22;7469;50.906;6.952;2023-04-16T01:50:48;8.70;99.90
14755;DHT22;7469;50.906;6.952;2023-04-16T01:53:16;8.70;99.90
14755;DHT22;7469;50.906;6.952;2023-04-16T01:55:45;8.70;99.90
14755;DHT22;7469;50.906;6.952;2023-04-16T01:58:13;8.70;99.90
14755;DHT22;7469;50.906;6.952;2023-04-16T02:00:41;8.70;99.90
14755;DHT22;7469;50.906;6.952;2023-04-16T02:03:09;8.70;99.90
14755;DHT22;7469;50.906;6.952;2023-04-16T02:05:37;8.70;99.90
14755;DHT22;7469;50.906;6.952;2023-04-16T02:08:05;8.70;99.90
14755;DHT22;7469;50.906;6.952;2023-04-16T02:10:33;8.70;99.90
14755;DHT22;7469;50.906;6.952;2023-04-16T02:13:02;8.60;99.90
14755;DHT22;7469;50.906;6.952;2023-04-16T02:15:30;8.70;99.90
14755;DHT22;7469;50.906;6.952;2023-04-16T02:17:58;8.70;99.90
14755;DHT22;7469;50.906;6.952;2023-04-16T02:20:26;8.70;99.90
14755;DHT22;7469;50.906;6.952;2023-04-16T02:22:54;8.70;99.90
14755;DHT22;7469;50.906;6.952;2023-04-16T02:25:22;8.70;99.90
14755;DHT22;7469;50.906;6.952;2023-04-16T02:27:50;8.70;99.90
14755;DHT22;7469;50.906;6.952;2023-04-16T02:30:20;8.70;99.90
14755;DHT22;7469;50.906;6.952;2023-04-16T02:32:48;8.70;99.90
14755;DHT22;7469;50.906;6.952;2023-04-16T02:35:16;8.70;99.90
14755;DHT22;7469;50.906;6.952;2023-04-16T02:37:44;8.70;99.90
14755;DHT22;7469;50.906;6.952;2023-04-16T02:40:12;8.70;99.90
14755;DHT22;7469;50.906;6.952;2023-04-16T02:42:39;8.70;99.90
14755;DHT22;7469;50.906;6.952;2023-04-16T02:45:09;8.70;99.90
14755;DHT22;7469;50.906;6.952;2023-04-16T02:47:38;8.70;99.90
14755;DHT22;7469;50.906;6.952;2023-04-16T02:50:07;8.70;99.90
14755;DHT22;7469;50.906;6.952;2023-04-16T02:52:35;8.70;99.90
14755;DHT22;7469;50.906;6.952;2023-04-16T02:55:03;8.70;99.90
14755;DHT22;7469;50.906;6.952;2023-04-16T02:57:31;8.70;99.90
14755;DHT22;7469;50.906;6.952;2023-04-16T02:59:59;8.70;99.90
14755;DHT22;7469;50.906;6.952;2023-04-16T03:02:27;8.70;99.90
14755;DHT22;7469;50.906;6.952;2023-04-16T03:04:56;8.70;99.90
14755;DHT22;7469;50.906;6.952;2023-04-16T03:07:24;8.70;99.90
14755;DHT22;7469;50.906;6.952;2023-04-16T03:09:52;8.70;99.90
14755;DHT22;7469;50.906;6.952;2023-04-16T03:12:20;8.70;99.90
14755;DHT22;7469;50.906;6.952;2023-04-16T03:14:49;8.70;99.90
14755;DHT22;7469;50.906;6.952;2023-04-16T03:17:18;8.70;99.90
14755;DHT22;7469;50.906;6.952;2023-04-16T03:19:46;8.70;99.90
14755;DHT22;7469;50.906;6.952;2023-04-16T03:22:15;8.60;99.90
14755;DHT22;7469;50.906;6.952;2023-04-16T03:24:43;8.60;99.90
14755;DHT22;7469;50.906;6.952;2023-04-16T03:27:11;8.70;99.90
14755;DHT22;7469;50.906;6.952;2023-04-16T03:29:38;8.70;99.90
14755;DHT22;7469;50.906;6.952;2023-04-16T03:32:06;8.70;99.90
14755;DHT22;7469;50.906;6.952;2023-04-16T03:34:34;8.60;99.90
14755;DHT22;7469;50.906;6.952;2023-04-16T03:37:03;8.70;99.90
14755;DHT22;7469;50.906;6.952;2023-04-16T03:39:33;8.70;99.90
14755;DHT22;7469;50.906;6.952;2023-04-16T03:42:01;8.70;99.90
14755;DHT22;7469;50.906;6.952;2023-04-16T03:44:29;8.60;99.90
14755;DHT22;7469;50.906;6.952;2023-04-16T03:46:57;8.60;99.90
14755;DHT22;7469;50.906;6.952;2023-04-16T03:49:25;8.60;99.90
14755;DHT22;7469;50.906;6.952;2023-04-16T03:51:53;8.60;99.90
14755;DHT22;7469;50.906;6.952;2023-04-16T03:54:21;8.60;99.90
14755;DHT22;7469;50.906;6.952;2023-04-16T03:56:50;8.60;99.90
14755;DHT22;7469;50.906;6.952;2023-04-16T03:59:18;8.70;99.90
14755;DHT22;7469;50.906;6.952;2023-04-16T04:01:46;8.70;99.90
14755;DHT22;7469;50.906;6.952;2023-04-16T04:04:14;8.70;99.90
14755;DHT22;7469;50.906;6.952;2023-04-16T04:06:44;8.70;99.90
14755;DHT22;7469;50.906;6.952;2023-04-16T04:09:12;8.70;99.90
14755;DHT22;7469;50.906;6.952;2023-04-16T04:11:40;8.70;99.90
14755;DHT22;7469;50.906;6.952;2023-04-16T04:14:10;8.70;99.90
14755;DHT22;7469;50.906;6.952;2023-04-16T04:16:38;8.70;99.90
14755;DHT22;7469;50.906;6.952;2023-04-16T04:19:06;8.70;99.90
14755;DHT22;7469;50.906;6.952;2023-04-16T04:21:34;8.70;99.90
14755;DHT22;7469;50.906;6.952;2023-04-16T04:24:02;8.70;99.90
14755;DHT22;7469;50.906;6.952;2023-04-16T04:26:31;8.70;99.90
14755;DHT22;7469;50.906;6.952;2023-04-16T04:28:59;8.70;99.90
14755;DHT22;7469;50.906;6.952;2023-04-16T04:31:28;8.70;99.90
14755;DHT22;7469;50.906;6.952;2023-04-16T04:33:56;8.70;99.90
14755;DHT22;7469;50.906;6.952;2023-04-16T04:36:24;8.70;99.90
14755;DHT22;7469;50.906;6.952;2023-04-16T04:38:53;8.70;99.90
14755;DHT22;7469;50.906;6.952;2023-04-16T04:41:21;8.70;99.90
14755;DHT22;7469;50.906;6.952;2023-04-16T04:43:49;8.70;99.90
14755;DHT22;7469;50.906;6.952;2023-04-16T04:46:17;8.70;99.90
14755;DHT22;7469;50.906;6.952;2023-04-16T04:48:46;8.80;99.90
14755;DHT22;7469;50.906;6.952;2023-04-16T04:51:14;8.70;99.90
14755;DHT22;7469;50.906;6.952;2023-04-16T04:53:42;8.80;99.90
14755;DHT22;7469;50.906;6.952;2023-04-16T04:56:10;8.80;99.90
14755;DHT22;7469;50.906;6.952;2023-04-16T04:58:39;8.80;99.90
14755;DHT22;7469;50.906;6.952;2023-04-16T05:01:07;8.80;99.90
14755;DHT22;7469;50.906;6.952;2023-04-16T05:03:35;8.80;99.90
14755;DHT22;7469;50.906;6.952;2023-04-16T05:06:06;8.80;99.90
14755;DHT22;7469;50.906;6.952;2023-04-16T05:08:34;8.80;99.90
14755;DHT22;7469;50.906;6.952;2023-04-16T05:11:02;8.90;99.90
14755;DHT22;7469;50.906;6.952;2023-04-16T05:13:30;8.80;99.90
14755;DHT22;7469;50.906;6.952;2023-04-16T05:15:58;8.80;99.90
14755;DHT22;7469;50.906;6.952;2023-04-16T05:18:26;8.80;99.90
14755;DHT22;7469;50.906;6.952;2023-04-16T05:20:54;8.80;99.90
14755;DHT22;7469;50.906;6.952;2023-04-16T05:23:23;8.90;99.90
14755;DHT22;7469;50.906;6.952;2023-04-16T05:25:51;8.90;99.90
14755;DHT22;7469;50.906;6.952;2023-04-16T05:28:19;8.90;99.90
14755;DHT22;7469;50.906;6.952;2023-04-16T05:30:47;8.90;99.90
14755;DHT22;7469;50.906;6.952;2023-04-16T05:33:15;8.90;99.90
14755;DHT22;7469;50.906;6.952;2023-04-16T05:35:43;8.90;99.90
14755;DHT22;7469;50.906;6.952;2023-04-16T05:38:11;8.90;99.90
14755;DHT22;7469;50.906;6.952;2023-04-16T05:40:41;8.90;99.90
14755;DHT22;7469;50.906;6.952;2023-04-16T05:43:08;8.90;99.90
14755;DHT22;7469;50.906;6.952;2023-04-16T05:45:36;8.90;99.90
14755;DHT22;7469;50.906;6.952;2023-04-16T05:48:07;8.90;99.90
14755;DHT22;7469;50.906;6.952;2023-04-16T05:50:36;8.90;99.90
14755;DHT22;7469;50.906;6.952;2023-04-16T05:53:05;8.90;99.90
14755;DHT22;7469;50.906;6.952;2023-04-16T05:55:34;8.90;99.90
14755;DHT22;7469;50.906;6.952;2023-04-16T05:58:04;8.90;99.90
14755;DHT22;7469;50.906;6.952;2023-04-16T06:00:32;8.90;99.90
14755;DHT22;7469;50.906;6.952;2023-04-16T06:03:00;9.00;99.90
14755;DHT22;7469;50.906;6.952;2023-04-16T06:05:30;9.00;99.90
14755;DHT22;7469;50.906;6.952;2023-04-16T06:07:58;9.00;99.90
14755;DHT22;7469;50.906;6.952;2023-04-16T06:10:26;9.00;99.90
14755;DHT22;7469;50.906;6.952;2023-04-16T06:12:54;9.00;99.90
14755;DHT22;7469;50.906;6.952;2023-04-16T06:15:23;9.00;99.90
14755;DHT22;7469;50.906;6.952;2023-04-16T06:17:53;9.00;99.90
14755;DHT22;7469;50.906;6.952;2023-04-16T06:20:21;9.00;99.90
14755;DHT22;7469;50.906;6.952;2023-04-16T06:22:49;9.10;99.90
14755;DHT22;7469;50.906;6.952;2023-04-16T06:25:17;9.00;99.90
14755;DHT22;7469;50.906;6.952;2023-04-16T06:27:45;9.10;99.90
14755;DHT22;7469;50.906;6.952;2023-04-16T06:30:14;9.10;99.90
14755;DHT22;7469;50.906;6.952;2023-04-16T06:32:43;9.10;99.90
14755;DHT22;7469;50.906;6.952;2023-04-16T06:35:12;9.10;99.90
14755;DHT22;7469;50.906;6.952;2023-04-16T06:37:40;9.10;99.90
14755;DHT22;7469;50.906;6.952;2023-04-16T06:40:08;9.10;99.90
14755;DHT22;7469;50.906;6.952;2023-04-16T06:42:37;9.10;99.90
14755;DHT22;7469;50.906;6.952;2023-04-16T06:45:06;9.10;99.90
14755;DHT22;7469;50.906;6.952;2023-04-16T06:47:34;9.10;99.90
14755;DHT22;7469;50.906;6.952;2023-04-16T06:50:04;9.10;99.90
14755;DHT22;7469;50.906;6.952;2023-04-16T06:52:32;9.10;99.90
14755;DHT22;7469;50.906;6.952;2023-04-16T06:55:00;9.10;99.90
14755;DHT22;7469;50.906;6.952;2023-04-16T06:57:28;9.20;99.90
14755;DHT22;7469;50.906;6.952;2023-04-16T06:59:56;9.20;99.90
14755;DHT22;7469;50.906;6.952;2023-04-16T07:02:24;9.20;99.90
14755;DHT22;7469;50.906;6.952;2023-04-16T07:04:52;9.20;99.90
14755;DHT22;7469;50.906;6.952;2023-04-16T07:07:22;9.20;99.90
14755;DHT22;7469;50.906;6.952;2023-04-16T07:09:50;9.20;99.90
14755;DHT22;7469;50.906;6.952;2023-04-16T07:12:18;9.20;99.90
14755;DHT22;7469;50.906;6.952;2023-04-16T07:14:48;9.20;99.90
14755;DHT22;7469;50.906;6.952;2023-04-16T07:17:16;9.20;99.90
14755;DHT22;7469;50.906;6.952;2023-04-16T07:19:45;9.30;99.90
14755;DHT22;7469;50.906;6.952;2023-04-16T07:22:13;9.30;99.90
14755;DHT22;7469;50.906;6.952;2023-04-16T07:24:42;9.40;99.90
14755;DHT22;7469;50.906;6.952;2023-04-16T07:27:10;9.40;99.90
14755;DHT22;7469;50.906;6.952;2023-04-16T07:29:38;9.40;99.90
14755;DHT22;7469;50.906;6.952;2023-04-16T07:32:07;9.40;99.90
14755;DHT22;7469;50.906;6.952;2023-04-16T07:34:35;9.40;99.90
14755;DHT22;7469;50.906;6.952;2023-04-16T07:37:02;9.40;99.90
14755;DHT22;7469;50.906;6.952;2023-04-16T07:39:30;9.40;99.90
14755;DHT22;7469;50.906;6.952;2023-04-16T07:42:00;9.50;99.90
14755;DHT22;7469;50.906;6.952;2023-04-16T07:44:28;9.50;99.90
14755;DHT22;7469;50.906;6.952;2023-04-16T07:46:56;9.50;99.90
14755;DHT22;7469;50.906;6.952;2023-04-16T07:49:24;9.50;99.90
14755;DHT22;7469;50.906;6.952;2023-04-16T07:51:52;9.60;99.90
14755;DHT22;7469;50.906;6.952;2023-04-16T07:54:20;9.60;99.90
14755;DHT22;7469;50.906;6.952;2023-04-16T07:56:48;9.60;99.90
14755;DHT22;7469;50.906;6.952;2023-04-16T07:59:18;9.70;99.90
14755;DHT22;7469;50.906;6.952;2023-04-16T08:01:51;9.70;99.90
14755;DHT22;7469;50.906;6.952;2023-04-16T08:04:20;9.70;99.90
14755;DHT22;7469;50.906;6.952;2023-04-16T08:06:51;9.80;99.90
14755;DHT22;7469;50.906;6.952;2023-04-16T08:09:19;9.80;99.90
14755;DHT22;7469;50.906;6.952;2023-04-16T08:11:47;9.90;99.90
14755;DHT22;7469;50.906;6.952;2023-04-16T08:14:17;9.90;99.90
14755;DHT22;7469;50.906;6.952;2023-04-16T08:16:45;10.00;99.90
14755;DHT22;7469;50.906;6.952;2023-04-16T08:19:13;10.00;99.90
14755;DHT22;7469;50.906;6.952;2023-04-16T08:21:41;10.10;99.90
14755;DHT22;7469;50.906;6.952;2023-04-16T08:24:09;10.30;99.90
14755;DHT22;7469;50.906;6.952;2023-04-16T08:26:37;10.40;99.90
14755;DHT22;7469;50.906;6.952;2023-04-16T08:29:05;10.60;99.90
14755;DHT22;7469;50.906;6.952;2023-04-16T08:31:35;10.80;99.90
14755;DHT22;7469;50.906;6.952;2023-04-16T08:34:03;11.00;99.90
14755;DHT22;7469;50.906;6.952;2023-04-16T08:36:30;11.10;99.90
14755;DHT22;7469;50.906;6.952;2023-04-16T08:38:58;11.10;99.90
14755;DHT22;7469;50.906;6.952;2023-04-16T08:41:27;11.30;99.90
14755;DHT22;7469;50.906;6.952;2023-04-16T08:43:59;11.30;99.90
14755;DHT22;7469;50.906;6.952;2023-04-16T08:46:28;11.30;99.90
14755;DHT22;7469;50.906;6.952;2023-04-16T08:48:58;11.30;99.90
14755;DHT22;7469;50.906;6.952;2023-04-16T08:51:29;11.40;99.90
14755;DHT22;7469;50.906;6.952;2023-04-16T08:54:03;11.40;99.90
14755;DHT22;7469;50.906;6.952;2023-04-16T08:56:35;11.40;99.90
14755;DHT22;7469;50.906;6.952;2023-04-16T08:59:03;11.30;99.90
14755;DHT22;7469;50.906;6.952;2023-04-16T09:01:32;11.30;99.90
14755;DHT22;7469;50.906;6.952;2023-04-16T09:04:01;11.30;99.90
14755;DHT22;7469;50.906;6.952;2023-04-16T09:06:30;11.30;99.90
14755;DHT22;7469;50.906;6.952;2023-04-16T09:08:59;11.30;99.90
14755;DHT22;7469;50.906;6.952;2023-04-16T09:11:30;11.30;99.90
14755;DHT22;7469;50.906;6.952;2023-04-16T09:13:58;11.30;99.90
14755;DHT22;7469;50.906;6.952;2023-04-16T09:16:27;11.40;99.90
14755;DHT22;7469;50.906;6.952;2023-04-16T09:19:00;11.60;99.90
14755;DHT22;7469;50.906;6.952;2023-04-16T09:21:28;11.70;99.90
14755;DHT22;7469;50.906;6.952;2023-04-16T09:23:56;11.90;99.90
14755;DHT22;7469;50.906;6.952;2023-04-16T09:26:25;12.10;99.90
14755;DHT22;7469;50.906;6.952;2023-04-16T09:28:54;12.20;99.90
14755;DHT22;7469;50.906;6.952;2023-04-16T09:31:22;12.30;99.90
14755;DHT22;7469;50.906;6.952;2023-04-16T09:34:05;12.30;99.90
14755;DHT22;7469;50.906;6.952;2023-04-16T09:36:34;12.30;99.90
14755;DHT22;7469;50.906;6.952;2023-04-16T09:39:02;12.30;99.90
14755;DHT22;7469;50.906;6.952;2023-04-16T09:41:32;12.30;99.90
14755;DHT22;7469;50.906;6.952;2023-04-16T09:44:03;12.30;99.90
14755;DHT22;7469;50.906;6.952;2023-04-16T09:46:34;12.30;99.90
14755;DHT22;7469;50.906;6.952;2023-04-16T09:49:07;12.40;99.90
14755;DHT22;7469;50.906;6.952;2023-04-16T09:51:37;12.40;99.90
14755;DHT22;7469;50.906;6.952;2023-04-16T09:54:05;12.50;99.90
14755;DHT22;7469;50.906;6.952;2023-04-16T09:56:38;12.40;99.90
14755;DHT22;7469;50.906;6.952;2023-04-16T09:59:07;12.40;99.90
14755;DHT22;7469;50.906;6.952;2023-04-16T10:01:36;12.40;99.90
14755;DHT22;7469;50.906;6.952;2023-04-16T10:04:05;12.40;99.90
14755;DHT22;7469;50.906;6.952;2023-04-16T10:06:34;12.40;99.90
14755;DHT22;7469;50.906;6.952;2023-04-16T10:09:06;12.40;99.90
14755;DHT22;7469;50.906;6.952;2023-04-16T10:11:34;12.40;99.90
14755;DHT22;7469;50.906;6.952;2023-04-16T10:14:02;12.30;99.90
14755;DHT22;7469;50.906;6.952;2023-04-16T10:16:30;12.30;99.90
14755;DHT22;7469;50.906;6.952;2023-04-16T10:18:59;12.40;99.90
14755;DHT22;7469;50.906;6.952;2023-04-16T10:21:28;12.50;99.90
14755;DHT22;7469;50.906;6.952;2023-04-16T10:24:00;12.70;99.90
14755;DHT22;7469;50.906;6.952;2023-04-16T10:26:28;12.80;99.90
14755;DHT22;7469;50.906;6.952;2023-04-16T10:28:57;13.00;99.90
14755;DHT22;7469;50.906;6.952;2023-04-16T10:31:26;13.10;99.90
14755;DHT22;7469;50.906;6.952;2023-04-16T10:33:55;13.10;99.90
14755;DHT22;7469;50.906;6.952;2023-04-16T10:36:24;13.10;99.90
14755;DHT22;7469;50.906;6.952;2023-04-16T10:38:57;13.10;99.90
14755;DHT22;7469;50.906;6.952;2023-04-16T10:41:26;13.10;99.90
14755;DHT22;7469;50.906;6.952;2023-04-16T10:44:03;13.00;99.90
14755;DHT22;7469;50.906;6.952;2023-04-16T10:46:36;13.10;99.90
14755;DHT22;7469;50.906;6.952;2023-04-16T10:49:12;13.10;99.90
14755;DHT22;7469;50.906;6.952;2023-04-16T10:51:41;13.10;99.90
14755;DHT22;7469;50.906;6.952;2023-04-16T10:54:24;13.10;99.90
14755;DHT22;7469;50.906;6.952;2023-04-16T10:56:55;13.10;99.90
14755;DHT22;7469;50.906;6.952;2023-04-16T10:59:24;13.10;99.90
14755;DHT22;7469;50.906;6.952;2023-04-16T11:01:58;13.10;99.90
14755;DHT22;7469;50.906;6.952;2023-04-16T11:04:31;13.10;99.90
14755;DHT22;7469;50.906;6.952;2023-04-16T11:07:01;13.10;99.90
14755;DHT22;7469;50.906;6.952;2023-04-16T11:09:45;13.10;99.90
14755;DHT22;7469;50.906;6.952;2023-04-16T11:12:14;13.20;99.90
14755;DHT22;7469;50.906;6.952;2023-04-16T11:14:46;13.30;99.90
14755;DHT22;7469;50.906;6.952;2023-04-16T11:17:15;13.40;99.90
14755;DHT22;7469;50.906;6.952;2023-04-16T11:19:43;13.40;99.90
14755;DHT22;7469;50.906;6.952;2023-04-16T11:22:12;13.50;99.90
14755;DHT22;7469;50.906;6.952;2023-04-16T11:24:44;13.50;99.90
14755;DHT22;7469;50.906;6.952;2023-04-16T11:27:13;13.60;99.90
14755;DHT22;7469;50.906;6.952;2023-04-16T11:29:42;13.70;99.90
14755;DHT22;7469;50.906;6.952;2023-04-16T11:32:19;13.90;99.90
14755;DHT22;7469;50.906;6.952;2023-04-16T11:34:48;14.00;99.90
14755;DHT22;7469;50.906;6.952;2023-04-16T11:37:19;14.10;99.90
14755;DHT22;7469;50.906;6.952;2023-04-16T11:39:49;14.20;99.90
14755;DHT22;7469;50.906;6.952;2023-04-16T11:42:19;14.30;99.90
14755;DHT22;7469;50.906;6.952;2023-04-16T11:44:52;14.40;99.90
14755;DHT22;7469;50.906;6.952;2023-04-16T11:47:21;14.40;99.90
14755;DHT22;7469;50.906;6.952;2023-04-16T11:49:50;14.40;99.90
14755;DHT22;7469;50.906;6.952;2023-04-16T11:52:24;14.50;99.90
14755;DHT22;7469;50.906;6.952;2023-04-16T11:54:55;14.60;99.90
14755;DHT22;7469;50.906;6.952;2023-04-16T11:57:24;14.80;99.90
14755;DHT22;7469;50.906;6.952;2023-04-16T11:59:53;14.80;99.90
14755;DHT22;7469;50.906;6.952;2023-04-16T12:02:36;14.80;99.90
14755;DHT22;7469;50.906;6.952;2023-04-16T12:05:06;14.80;99.90
14755;DHT22;7469;50.906;6.952;2023-04-16T12:07:52;14.80;99.90
14755;DHT22;7469;50.906;6.952;2023-04-16T12:10:21;14.90;99.90
14755;DHT22;7469;50.906;6.952;2023-04-16T12:12:49;15.10;99.90
14755;DHT22;7469;50.906;6.952;2023-04-16T12:15:17;15.30;99.90
14755;DHT22;7469;50.906;6.952;2023-04-16T12:17:45;15.50;99.90
14755;DHT22;7469;50.906;6.952;2023-04-16T12:20:14;15.50;99.90
14755;DHT22;7469;50.906;6.952;2023-04-16T12:22:44;15.50;99.90
14755;DHT22;7469;50.906;6.952;2023-04-16T12:25:15;15.50;99.90
14755;DHT22;7469;50.906;6.952;2023-04-16T12:27:46;15.40;99.90
14755;DHT22;7469;50.906;6.952;2023-04-16T12:30:20;15.30;99.90
14755;DHT22;7469;50.906;6.952;2023-04-16T12:32:50;15.30;99.90
14755;DHT22;7469;50.906;6.952;2023-04-16T12:35:28;15.30;99.90
14755;DHT22;7469;50.906;6.952;2023-04-16T12:37:57;15.30;99.90
14755;DHT22;7469;50.906;6.952;2023-04-16T12:40:25;15.40;99.90
14755;DHT22;7469;50.906;6.952;2023-04-16T12:42:54;15.60;99.90
14755;DHT22;7469;50.906;6.952;2023-04-16T12:45:23;15.60;99.90
14755;DHT22;7469;50.906;6.952;2023-04-16T12:47:51;15.80;99.90
14755;DHT22;7469;50.906;6.952;2023-04-16T12:50:19;16.00;99.90
14755;DHT22;7469;50.906;6.952;2023-04-16T12:52:47;16.10;99.90
14755;DHT22;7469;50.906;6.952;2023-04-16T12:55:15;16.20;99.90
14755;DHT22;7469;50.906;6.952;2023-04-16T12:57:43;16.30;99.90
14755;DHT22;7469;50.906;6.952;2023-04-16T13:00:14;16.50;99.90
14755;DHT22;7469;50.906;6.952;2023-04-16T13:02:42;16.60;99.90
14755;DHT22;7469;50.906;6.952;2023-04-16T13:05:11;16.70;99.90
14755;DHT22;7469;50.906;6.952;2023-04-16T13:07:40;16.90;99.90
14755;DHT22;7469;50.906;6.952;2023-04-16T13:10:09;17.00;99.90
14755;DHT22;7469;50.906;6.952;2023-04-16T13:12:36;17.10;99.90
14755;DHT22;7469;50.906;6.952;2023-04-16T13:15:05;17.20;99.90
14755;DHT22;7469;50.906;6.952;2023-04-16T13:17:35;17.30;99.90
14755;DHT22;7469;50.906;6.952;2023-04-16T13:20:03;17.30;99.90
14755;DHT22;7469;50.906;6.952;2023-04-16T13:22:32;17.20;99.90
14755;DHT22;7469;50.906;6.952;2023-04-16T13:25:00;17.20;99.90
14755;DHT22;7469;50.906;6.952;2023-04-16T13:27:28;17.10;99.90
14755;DHT22;7469;50.906;6.952;2023-04-16T13:29:57;17.00;99.90
14755;DHT22;7469;50.906;6.952;2023-04-16T13:32:25;17.00;99.90
14755;DHT22;7469;50.906;6.952;2023-04-16T13:34:55;16.90;99.90
14755;DHT22;7469;50.906;6.952;2023-04-16T13:37:22;16.90;99.90
14755;DHT22;7469;50.906;6.952;2023-04-16T13:39:50;16.80;99.90
14755;DHT22;7469;50.906;6.952;2023-04-16T13:42:18;16.70;99.90
14755;DHT22;7469;50.906;6.952;2023-04-16T13:44:47;16.60;99.90
14755;DHT22;7469;50.906;6.952;2023-04-16T13:47:18;16.50;99.90
14755;DHT22;7469;50.906;6.952;2023-04-16T13:49:46;16.40;99.90
14755;DHT22;7469;50.906;6.952;2023-04-16T13:52:16;16.30;99.90
14755;DHT22;7469;50.906;6.952;2023-04-16T13:54:44;16.30;99.90
14755;DHT22;7469;50.906;6.952;2023-04-16T13:57:12;16.20;99.90
14755;DHT22;7469;50.906;6.952;2023-04-16T13:59:40;16.20;99.90
14755;DHT22;7469;50.906;6.952;2023-04-16T14:02:08;16.10;99.90
14755;DHT22;7469;50.906;6.952;2023-04-16T14:04:37;16.00;99.90
14755;DHT22;7469;50.906;6.952;2023-04-16T14:07:04;16.00;99.90
14755;DHT22;7469;50.906;6.952;2023-04-16T14:09:34;16.00;99.90
14755;DHT22;7469;50.906;6.952;2023-04-16T14:12:02;16.00;99.90
14755;DHT22;7469;50.906;6.952;2023-04-16T14:14:30;15.90;99.90
14755;DHT22;7469;50.906;6.952;2023-04-16T14:16:58;15.90;99.90
14755;DHT22;7469;50.906;6.952;2023-04-16T14:19:26;15.80;99.90
14755;DHT22;7469;50.906;6.952;2023-04-16T14:21:54;15.80;99.90
14755;DHT22;7469;50.906;6.952;2023-04-16T14:24:22;15.70;99.90
14755;DHT22;7469;50.906;6.952;2023-04-16T14:26:51;15.60;99.90
14755;DHT22;7469;50.906;6.952;2023-04-16T14:29:19;15.60;99.90
14755;DHT22;7469;50.906;6.952;2023-04-16T14:31:47;15.50;99.90
14755;DHT22;7469;50.906;6.952;2023-04-16T14:34:16;15.40;99.90
14755;DHT22;7469;50.906;6.952;2023-04-16T14:36:43;15.40;99.90
14755;DHT22;7469;50.906;6.952;2023-04-16T14:39:11;15.40;99.90
14755;DHT22;7469;50.906;6.952;2023-04-16T14:41:39;15.30;99.90
14755;DHT22;7469;50.906;6.952;2023-04-16T14:44:09;15.20;99.90
14755;DHT22;7469;50.906;6.952;2023-04-16T14:46:36;15.20;99.90
14755;DHT22;7469;50.906;6.952;2023-04-16T14:49:06;15.20;99.90
14755;DHT22;7469;50.906;6.952;2023-04-16T14:51:38;15.20;99.90
14755;DHT22;7469;50.906;6.952;2023-04-16T14:54:06;15.20;99.90
14755;DHT22;7469;50.906;6.952;2023-04-16T14:56:34;15.20;99.90
14755;DHT22;7469;50.906;6.952;2023-04-16T14:59:02;15.30;99.90
14755;DHT22;7469;50.906;6.952;2023-04-16T15:01:32;15.30;99.90
14755;DHT22;7469;50.906;6.952;2023-04-16T15:04:00;15.30;99.90
14755;DHT22;7469;50.906;6.952;2023-04-16T15:06:28;15.40;99.90
14755;DHT22;7469;50.906;6.952;2023-04-16T15:08:58;15.40;99.90
14755;DHT22;7469;50.906;6.952;2023-04-16T15:11:26;15.50;99.90
14755;DHT22;7469;50.906;6.952;2023-04-16T15:13:54;15.60;99.90
14755;DHT22;7469;50.906;6.952;2023-04-16T15:16:22;15.60;99.90
14755;DHT22;7469;50.906;6.952;2023-04-16T15:18:51;15.60;99.90
14755;DHT22;7469;50.906;6.952;2023-04-16T15:21:20;15.60;99.90
14755;DHT22;7469;50.906;6.952;2023-04-16T15:23:48;15.70;99.90
14755;DHT22;7469;50.906;6.952;2023-04-16T15:26:16;15.70;99.90
14755;DHT22;7469;50.906;6.952;2023-04-16T15:28:44;15.90;99.90
14755;DHT22;7469;50.906;6.952;2023-04-16T15:31:12;16.00;99.90
14755;DHT22;7469;50.906;6.952;2023-04-16T15:33:40;16.30;99.90
14755;DHT22;7469;50.906;6.952;2023-04-16T15:36:09;16.60;99.90
14755;DHT22;7469;50.906;6.952;2023-04-16T15:38:38;16.70;99.90
14755;DHT22;7469;50.906;6.952;2023-04-16T15:41:06;16.70;99.90
14755;DHT22;7469;50.906;6.952;2023-04-16T15:43:35;16.80;99.90
14755;DHT22;7469;50.906;6.952;2023-04-16T15:46:03;16.70;99.90
14755;DHT22;7469;50.906;6.952;2023-04-16T15:48:32;16.70;99.90
14755;DHT22;7469;50.906;6.952;2023-04-16T15:51:00;16.60;99.90
14755;DHT22;7469;50.906;6.952;2023-04-16T15:53:29;16.50;99.90
14755;DHT22;7469;50.906;6.952;2023-04-16T15:55:57;16.50;99.90
14755;DHT22;7469;50.906;6.952;2023-04-16T15:58:25;16.60;99.90
14755;DHT22;7469;50.906;6.952;2023-04-16T16:00:53;16.50;99.90
14755;DHT22;7469;50.906;6.952;2023-04-16T16:03:21;16.50;99.90
14755;DHT22;7469;50.906;6.952;2023-04-16T16:05:49;16.50;99.90